Time;durP1;ratioP1;P1;durP2;ratioP2;P2;SDS_P1;SDS_P2;PMS_P1;PMS_P2;Temp;Humidity;BMP_temperature;BMP_pressure;BME280_temperature;BME280_humidity;BME280_pressure;Samples;Min_cycle;Max_cycle;Signal;HPM_P1;HPM_P2
2021/04/12 00:01:14;;;;;;;1.50;1.40;;;8.80;94.50;;;;;;4828167;29;20062;-83
2021/04/12 00:04:02;;;;;;;2.05;1.60;;;8.80;94.70;;;;;;4812379;29;20042;-82
2021/04/12 00:06:40;;;;;;;2.13;2.03;;;8.80;94.50;;;;;;4827692;29;20053;-82
2021/04/12 00:09:17;;;;;;;1.30;1.30;;;8.80;94.00;;;;;;4843961;29;20058;-82
2021/04/12 00:11:48;;;;;;;1.70;1.60;;;8.90;94.20;;;;;;4828044;29;20061;-82
2021/04/12 00:14:28;;;;;;;1.58;1.48;;;8.90;94.30;;;;;;4844182;29;20061;-83
2021/04/12 00:17:08;;;;;;;3.33;2.00;;;8.80;94.30;;;;;;4827868;29;20049;-83
2021/04/12 00:19:51;;;;;;;1.60;1.50;;;8.70;94.50;;;;;;4843755;29;20058;-83
2021/04/12 00:22:38;;;;;;;1.52;1.25;;;8.70;94.60;;;;;;4843950;29;20053;-83
2021/04/12 00:25:32;;;;;;;1.52;1.48;;;8.70;94.60;;;;;;4827054;29;20089;-82
2021/04/12 00:28:40;;;;;;;1.48;1.38;;;8.80;94.70;;;;;;4812736;29;20054;-82
2021/04/12 00:31:17;;;;;;;1.42;1.33;;;8.70;94.70;;;;;;4811835;29;20046;-82
2021/04/12 00:33:51;;;;;;;1.73;1.63;;;8.60;94.80;;;;;;4843850;29;20041;-83
2021/04/12 00:36:18;;;;;;;1.67;1.58;;;8.60;94.90;;;;;;4842364;29;20401;-73
2021/04/12 00:39:05;;;;;;;2.13;1.98;;;8.50;94.90;;;;;;4841977;29;20050;-83
2021/04/12 00:41:54;;;;;;;1.42;1.33;;;8.50;95.00;;;;;;4842715;29;20065;-83
2021/04/12 00:44:50;;;;;;;1.55;1.45;;;8.40;95.20;;;;;;4825486;29;20062;-83
2021/04/12 00:47:26;;;;;;;1.60;1.50;;;8.30;95.50;;;;;;4808732;29;20046;-83
2021/04/12 00:50:12;;;;;;;1.50;1.40;;;8.30;95.50;;;;;;4793850;29;20042;-83
2021/04/12 00:53:17;;;;;;;2.17;1.98;;;8.30;95.60;;;;;;4841113;29;20066;-83
2021/04/12 00:55:53;;;;;;;1.70;1.60;;;8.10;95.70;;;;;;4840812;29;20416;-83
2021/04/12 00:58:24;;;;;;;2.05;1.85;;;8.10;95.90;;;;;;4826697;29;20050;-83
2021/04/12 01:01:27;;;;;;;1.63;1.53;;;8.10;95.80;;;;;;4827334;29;20085;-83
2021/04/12 01:04:21;;;;;;;2.92;1.80;;;8.00;96.00;;;;;;4806643;29;20306;-83
2021/04/12 01:07:19;;;;;;;4.97;1.90;;;8.00;96.30;;;;;;4842483;29;20042;-83
2021/04/12 01:10:08;;;;;;;1.63;1.52;;;7.90;96.50;;;;;;4842664;29;20038;-83
2021/04/12 01:13:10;;;;;;;2.05;1.95;;;7.80;96.60;;;;;;4826607;29;20062;-83
2021/04/12 01:15:49;;;;;;;1.75;1.65;;;7.80;96.80;;;;;;4823900;29;20396;-83
2021/04/12 01:18:42;;;;;;;1.48;1.40;;;7.70;97.10;;;;;;4809959;29;20062;-83
2021/04/12 01:21:50;;;;;;;2.28;1.65;;;7.70;97.30;;;;;;4827578;29;20068;-83
2021/04/12 01:24:36;;;;;;;1.75;1.65;;;7.60;97.40;;;;;;4825652;29;20065;-83
2021/04/12 01:27:28;;;;;;;1.73;1.50;;;7.60;97.20;;;;;;4841823;29;20046;-83
2021/04/12 01:30:33;;;;;;;1.88;1.45;;;7.60;97.40;;;;;;4841927;29;20081;-83
2021/04/12 01:33:36;;;;;;;3.53;1.77;;;7.60;97.30;;;;;;4841762;29;20081;-80
2021/04/12 01:36:35;;;;;;;1.95;1.75;;;7.60;97.30;;;;;;4842855;29;20724;-80
2021/04/12 01:39:03;;;;;;;1.55;1.45;;;7.70;97.30;;;;;;4810431;29;20037;-80
2021/04/12 01:41:36;;;;;;;2.78;2.38;;;7.60;97.30;;;;;;4810430;29;20038;-83
2021/04/12 01:44:19;;;;;;;1.67;1.58;;;7.60;97.10;;;;;;4843058;29;20084;-83
2021/04/12 01:46:49;;;;;;;1.83;1.73;;;7.70;97.50;;;;;;4826149;29;20062;-83
2021/04/12 01:49:41;;;;;;;1.63;1.52;;;7.70;97.10;;;;;;4826655;29;20068;-83
2021/04/12 01:52:24;;;;;;;1.92;1.83;;;7.70;96.90;;;;;;4842170;29;20061;-84
2021/04/12 01:54:58;;;;;;;1.75;1.65;;;7.70;97.50;;;;;;4810714;29;20045;-83
2021/04/12 01:57:47;;;;;;;1.60;1.50;;;7.70;97.60;;;;;;4832388;29;20054;-83
2021/04/12 02:01:02;;;;;;;1.75;1.65;;;7.60;97.60;;;;;;4824336;29;20627;-83
2021/04/12 02:03:45;;;;;;;1.50;1.40;;;7.60;97.80;;;;;;4743467;29;20060;-83
2021/04/12 02:06:29;;;;;;;3.88;3.47;;;7.50;97.70;;;;;;4823059;29;20042;-83
2021/04/12 02:09:21;;;;;;;1.70;1.60;;;7.50;98.10;;;;;;4824561;29;20062;-83
2021/04/12 02:12:12;;;;;;;;;;;7.50;98.20;;;;;;4779745;29;20055;-83
2021/04/12 02:14:55;;;;;;;2.22;2.13;;;7.60;98.20;;;;;;4806889;29;19932;-83
2021/04/12 02:17:41;;;;;;;1.67;1.58;;;7.70;98.10;;;;;;4823944;29;20061;-83
2021/04/12 02:20:37;;;;;;;2.28;2.17;;;7.70;97.90;;;;;;4808121;29;20054;-83
2021/04/12 02:23:22;;;;;;;2.10;1.90;;;7.80;97.90;;;;;;4823680;29;20505;-83
2021/04/12 02:26:01;;;;;;;2.30;2.10;;;7.80;97.70;;;;;;4791678;29;20688;-83
2021/04/12 02:28:35;;;;;;;2.28;2.17;;;7.80;97.80;;;;;;4807724;29;20134;-83
2021/04/12 02:31:21;;;;;;;2.25;2.15;;;7.80;97.70;;;;;;4823579;29;20046;-83
2021/04/12 02:33:57;;;;;;;2.42;2.15;;;7.80;97.60;;;;;;4823020;29;20061;-83
2021/04/12 02:37:06;;;;;;;2.20;1.95;;;7.80;97.50;;;;;;4823738;29;20069;-83
2021/04/12 02:40:11;;;;;;;1.88;1.77;;;7.80;97.70;;;;;;4821641;29;20058;-83
2021/04/12 02:43:09;;;;;;;1.65;1.55;;;7.80;97.60;;;;;;4827324;29;20056;-83
2021/04/12 02:45:55;;;;;;;2.33;2.08;;;7.90;97.50;;;;;;4861696;24;20052;-83
2021/04/12 02:48:37;;;;;;;2.08;1.92;;;7.90;97.30;;;;;;4810607;29;20054;-83
2021/04/12 02:51:33;;;;;;;2.85;2.53;;;7.90;97.60;;;;;;4806825;29;20054;-83
2021/04/12 02:54:21;;;;;;;1.73;1.63;;;7.90;97.70;;;;;;4806852;29;20049;-83
2021/04/12 02:57:10;;;;;;;2.05;1.90;;;7.90;97.60;;;;;;4822826;29;20062;-83
2021/04/12 02:59:55;;;;;;;2.67;2.47;;;7.90;97.40;;;;;;4823177;29;20055;-83
2021/04/12 03:02:23;;;;;;;2.63;2.42;;;7.90;97.50;;;;;;4822028;29;20054;-83
2021/04/12 03:05:18;;;;;;;2.60;2.40;;;7.90;97.60;;;;;;4823387;29;20069;-83
2021/04/12 03:08:21;;;;;;;2.78;2.58;;;8.00;97.50;;;;;;4802498;29;20408;-83
2021/04/12 03:11:01;;;;;;;2.88;2.28;;;8.00;97.40;;;;;;4806297;29;20046;-83
2021/04/12 03:14:11;;;;;;;2.55;2.35;;;8.00;97.40;;;;;;4822133;29;20484;-83
2021/04/12 03:16:51;;;;;;;2.72;2.50;;;7.90;97.50;;;;;;4822212;29;20055;-83
2021/04/12 03:19:40;;;;;;;2.53;2.25;;;7.90;97.40;;;;;;4810537;29;20409;-83
2021/04/12 03:22:40;;;;;;;2.83;2.63;;;8.00;97.50;;;;;;4828136;29;20050;-83
2021/04/12 03:25:32;;;;;;;2.45;2.20;;;8.00;97.40;;;;;;4813082;29;20065;-83
2021/04/12 03:28:21;;;;;;;3.08;2.88;;;8.00;97.30;;;;;;4845505;29;20058;-84
2021/04/12 03:31:02;;;;;;;3.25;2.95;;;8.00;97.30;;;;;;4828181;29;20061;-83
2021/04/12 03:34:03;;;;;;;3.03;2.83;;;8.00;97.50;;;;;;4827811;29;20050;-83
2021/04/12 03:37:03;;;;;;;2.92;2.72;;;8.00;97.50;;;;;;4813852;29;20061;-83
2021/04/12 03:39:43;;;;;;;3.15;2.95;;;8.00;97.30;;;;;;4828015;29;20058;-83
2021/04/12 03:42:41;;;;;;;3.15;2.85;;;8.00;97.40;;;;;;4812666;29;20046;-83
2021/04/12 03:45:40;;;;;;;4.30;3.92;;;8.00;97.60;;;;;;4827975;29;20061;-83
2021/04/12 03:48:16;;;;;;;4.65;3.60;;;8.00;97.90;;;;;;4828647;29;20062;-83
2021/04/12 03:51:52;;;;;;;3.75;3.42;;;8.00;97.50;;;;;;4825930;29;20377;-83
2021/04/12 03:54:57;;;;;;;4.25;3.80;;;8.00;97.50;;;;;;4818101;29;20047;-83
2021/04/12 03:57:49;;;;;;;5.22;4.18;;;8.00;97.30;;;;;;4825678;29;20049;-83
2021/04/12 04:00:38;;;;;;;3.97;3.47;;;8.00;97.40;;;;;;4826555;29;20050;-83
2021/04/12 04:03:27;;;;;;;5.88;5.30;;;8.10;97.60;;;;;;4794659;29;20057;-83
2021/04/12 04:05:57;;;;;;;5.45;4.63;;;8.10;97.60;;;;;;4779812;29;20050;-83
2021/04/12 04:08:48;;;;;;;7.82;6.07;;;8.00;97.70;;;;;;4815198;29;20054;-83
2021/04/12 04:11:36;;;;;;;5.47;4.97;;;8.00;98.10;;;;;;4827225;29;20054;-83
2021/04/12 04:14:15;;;;;;;7.93;6.63;;;8.00;98.10;;;;;;4811998;29;20038;-83
2021/04/12 04:17:05;;;;;;;7.53;5.82;;;8.00;98.40;;;;;;4827871;29;20057;-83
2021/04/12 04:20:04;;;;;;;6.43;5.75;;;7.90;98.60;;;;;;4827094;29;20745;-83
2021/04/12 04:23:02;;;;;;;8.15;6.82;;;7.90;98.60;;;;;;4812970;29;20047;-83
2021/04/12 04:26:00;;;;;;;11.30;8.60;;;7.90;98.90;;;;;;4793983;29;20053;-83
2021/04/12 04:28:36;;;;;;;12.82;8.23;;;7.90;98.70;;;;;;4809088;29;20735;-83
2021/04/12 04:31:39;;;;;;;10.18;8.20;;;7.90;98.80;;;;;;4793913;29;20050;-83
2021/04/12 04:34:29;;;;;;;8.70;7.80;;;7.80;99.10;;;;;;4825319;29;20065;-83
2021/04/12 04:37:00;;;;;;;14.00;9.20;;;7.90;98.70;;;;;;4809639;29;20469;-82
2021/04/12 04:39:57;;;;;;;12.68;8.25;;;7.80;99.00;;;;;;4825090;29;20424;-83
2021/04/12 04:42:36;;;;;;;12.02;8.63;;;7.80;99.10;;;;;;4827281;29;20050;-83
2021/04/12 04:45:13;;;;;;;9.23;7.88;;;7.80;99.00;;;;;;4842487;29;20053;-82
2021/04/12 04:47:55;;;;;;;11.75;9.25;;;7.80;98.70;;;;;;4827854;29;20057;-85
2021/04/12 04:50:29;;;;;;;8.88;7.60;;;7.80;98.70;;;;;;4842992;29;20054;-84
2021/04/12 04:53:08;;;;;;;13.30;10.02;;;7.70;99.00;;;;;;4825290;29;20074;-81
2021/04/12 04:56:00;;;;;;;16.92;10.75;;;7.70;99.10;;;;;;4808230;29;20054;-84
2021/04/12 04:58:49;;;;;;;16.30;10.10;;;7.60;99.80;;;;;;4824361;29;20054;-84
2021/04/12 05:01:22;;;;;;;13.18;9.40;;;7.40;99.90;;;;;;4793323;29;20058;-81
2021/04/12 05:03:58;;;;;;;15.43;11.30;;;7.30;99.90;;;;;;4807964;29;20059;-81
2021/04/12 05:07:01;;;;;;;13.40;9.70;;;7.30;99.90;;;;;;4824034;29;20046;-80
2021/04/12 05:10:02;;;;;;;16.63;11.38;;;7.30;99.90;;;;;;4742134;29;20372;-80
2021/04/12 05:12:51;;;;;;;13.30;10.35;;;7.30;99.90;;;;;;4818385;29;20062;-84
2021/04/12 05:15:40;;;;;;;12.95;9.40;;;7.20;99.90;;;;;;4808478;29;20675;-84
2021/04/12 05:18:31;;;;;;;13.80;9.23;;;7.30;99.90;;;;;;4807783;29;20065;-84
2021/04/12 05:21:34;;;;;;;13.15;9.55;;;7.20;99.90;;;;;;4804426;29;20065;-83
2021/04/12 05:24:35;;;;;;;13.15;9.90;;;7.20;99.90;;;;;;4834802;29;20489;-83
2021/04/12 05:27:40;;;;;;;14.00;11.43;;;7.10;99.90;;;;;;4807124;29;20061;-79
2021/04/12 05:30:23;;;;;;;14.07;11.43;;;6.90;99.90;;;;;;4823560;29;20053;-84
2021/04/12 05:33:09;;;;;;;10.93;8.30;;;6.70;99.90;;;;;;4823083;29;20058;-83
2021/04/12 05:35:58;;;;;;;12.55;9.75;;;6.50;99.90;;;;;;4837964;29;20401;-83
2021/04/12 05:38:53;;;;;;;6.53;5.55;;;6.50;99.90;;;;;;4818283;29;20054;-82
2021/04/12 05:41:48;;;;;;;8.98;6.65;;;6.30;99.90;;;;;;4824073;29;20748;-84
2021/04/12 05:44:39;;;;;;;5.68;5.03;;;6.10;99.90;;;;;;4824301;29;20511;-83
2021/04/12 05:47:44;;;;;;;8.30;5.63;;;6.00;99.90;;;;;;4812984;29;20489;-83
2021/04/12 05:50:51;;;;;;;6.28;5.50;;;5.90;99.90;;;;;;4842036;29;20057;-82
2021/04/12 05:53:36;;;;;;;6.45;5.18;;;5.90;99.90;;;;;;4810113;29;20084;-82
2021/04/12 05:56:09;;;;;;;10.05;8.73;;;5.80;99.90;;;;;;4860312;29;20065;-82
2021/04/12 05:58:53;;;;;;;5.32;4.82;;;5.70;99.90;;;;;;4829186;29;20041;-82
2021/04/12 06:01:47;;;;;;;6.60;5.95;;;5.30;99.90;;;;;;4819658;29;20775;-84
2021/04/12 06:04:40;;;;;;;8.05;7.35;;;5.00;99.90;;;;;;4842017;29;20068;-81
2021/04/12 06:07:07;;;;;;;4.05;3.47;;;4.70;99.90;;;;;;4823853;29;20057;-82
2021/04/12 06:09:48;;;;;;;4.70;4.32;;;4.60;99.90;;;;;;4823928;29;20062;-83
2021/04/12 06:12:49;;;;;;;4.13;3.83;;;4.40;99.90;;;;;;4822805;29;20063;-82
2021/04/12 06:16:02;;;;;;;5.75;5.35;;;4.20;99.90;;;;;;4822254;29;20043;-83
2021/04/12 06:19:07;;;;;;;3.63;3.33;;;4.00;99.90;;;;;;4827300;29;20049;-83
2021/04/12 06:22:11;;;;;;;4.60;4.30;;;4.00;99.90;;;;;;4807187;29;20046;-82
2021/04/12 06:25:01;;;;;;;3.38;3.17;;;3.80;99.90;;;;;;4823907;29;20054;-82
2021/04/12 06:27:58;;;;;;;3.38;3.17;;;3.60;99.90;;;;;;4822775;29;20069;-81
2021/04/12 06:30:35;;;;;;;3.58;3.28;;;3.40;99.90;;;;;;4806937;29;20061;-84
2021/04/12 06:33:38;;;;;;;3.05;2.40;;;3.40;99.90;;;;;;4824123;29;20482;-84
2021/04/12 06:36:36;;;;;;;2.95;2.75;;;3.30;99.90;;;;;;4810361;29;20057;-87
2021/04/12 06:39:32;;;;;;;2.15;2.03;;;3.10;99.90;;;;;;4822380;29;20068;-82
2021/04/12 06:42:45;;;;;;;1.77;1.58;;;2.80;99.90;;;;;;4823194;29;20061;-84
2021/04/12 06:45:21;;;;;;;2.17;1.98;;;2.50;99.90;;;;;;4817853;29;20054;-83
2021/04/12 06:47:49;;;;;;;1.90;1.80;;;2.40;99.90;;;;;;4825351;29;20042;-84
2021/04/12 06:51:00;;;;;;;2.40;2.30;;;2.30;99.90;;;;;;4817829;29;20045;-84
2021/04/12 06:54:15;;;;;;;3.20;2.95;;;2.10;99.90;;;;;;4810550;29;20038;-76
2021/04/12 06:57:20;;;;;;;2.20;2.10;;;2.00;99.90;;;;;;4835005;29;20384;-81
2021/04/12 07:00:16;;;;;;;2.85;2.70;;;1.90;99.90;;;;;;4798684;29;20050;-84
2021/04/12 07:03:23;;;;;;;2.70;2.50;;;1.80;99.90;;;;;;4814234;29;20042;-86
2021/04/12 07:05:59;;;;;;;3.17;2.95;;;1.80;99.90;;;;;;4837950;29;20046;-78
2021/04/12 07:08:48;;;;;;;3.08;2.78;;;1.70;99.90;;;;;;4819995;29;20625;-84
2021/04/12 07:11:53;;;;;;;3.67;3.25;;;1.70;99.90;;;;;;4841019;29;20050;-86
2021/04/12 07:14:46;;;;;;;1.98;1.88;;;1.60;99.90;;;;;;4841244;29;20046;-88
2021/04/12 07:18:06;;;;;;;1.80;1.70;;;1.60;99.90;;;;;;4841705;29;20069;-84
2021/04/12 07:20:52;;;;;;;1.77;1.67;;;1.60;99.90;;;;;;4719583;30;20432;-86
2021/04/12 07:23:44;;;;;;;1.95;1.85;;;1.60;99.90;;;;;;4795402;29;20062;-87
2021/04/12 07:26:58;;;;;;;2.10;2.00;;;1.40;99.90;;;;;;4807294;29;20046;-91
2021/04/12 07:29:47;;;;;;;1.95;1.85;;;1.40;99.90;;;;;;4810360;29;20046;-89
2021/04/12 07:32:51;;;;;;;2.65;2.45;;;1.40;99.90;;;;;;4825196;29;20053;-87
2021/04/12 07:35:56;;;;;;;2.75;2.55;;;1.30;99.90;;;;;;4774220;29;20046;-86
2021/04/12 07:38:58;;;;;;;2.38;2.28;;;1.20;99.90;;;;;;4801589;29;20047;-85
2021/04/12 07:41:57;;;;;;;2.55;2.35;;;1.20;99.90;;;;;;4813099;29;20047;-85
2021/04/12 07:44:33;;;;;;;2.35;2.00;;;1.10;99.90;;;;;;4788740;29;20063;-85
2021/04/12 07:47:20;;;;;;;2.67;2.47;;;1.00;99.90;;;;;;4817492;29;20047;-83
2021/04/12 07:50:15;;;;;;;2.17;2.08;;;1.10;99.90;;;;;;4823112;29;20065;-83
2021/04/12 07:53:17;;;;;;;2.65;2.45;;;1.00;99.90;;;;;;4822483;29;20054;-84
2021/04/12 07:56:25;;;;;;;2.38;2.28;;;0.90;99.90;;;;;;4817105;29;20058;-81
2021/04/12 07:59:18;;;;;;;3.25;3.05;;;0.90;99.90;;;;;;4804382;29;20062;-84
2021/04/12 08:02:23;;;;;;;2.83;2.63;;;0.80;99.90;;;;;;4774408;29;20055;-85
2021/04/12 08:05:35;;;;;;;2.85;2.65;;;0.90;99.90;;;;;;4790325;29;20076;-85
2021/04/12 08:08:30;;;;;;;2.35;2.25;;;0.80;99.90;;;;;;4750305;29;20042;-84
2021/04/12 08:11:29;;;;;;;3.55;3.13;;;0.80;99.90;;;;;;4806297;29;20047;-85
2021/04/12 08:14:35;;;;;;;4.28;3.95;;;0.80;99.90;;;;;;4806909;29;20039;-84
2021/04/12 08:17:32;;;;;;;2.47;2.38;;;0.80;99.90;;;;;;4808199;29;20059;-85
2021/04/12 08:20:00;;;;;;;3.60;3.30;;;0.90;99.90;;;;;;4812436;29;20053;-75
2021/04/12 08:23:35;;;;;;;2.97;2.75;;;0.90;99.90;;;;;;4810856;29;20058;-88
2021/04/12 08:26:15;;;;;;;2.42;2.22;;;0.80;99.90;;;;;;4806630;29;20059;-88
2021/04/12 08:29:01;;;;;;;2.83;2.63;;;0.90;99.90;;;;;;4791791;29;20395;-86
2021/04/12 08:32:07;;;;;;;2.92;2.72;;;0.80;99.90;;;;;;4763924;29;20585;-84
2021/04/12 08:35:35;;;;;;;3.25;3.05;;;0.90;99.90;;;;;;4802482;29;20065;-89
2021/04/12 08:38:21;;;;;;;3.67;3.47;;;0.90;99.90;;;;;;4767432;29;20070;-85
2021/04/12 08:41:12;;;;;;;4.35;4.05;;;0.90;99.90;;;;;;4807100;29;20546;-84
2021/04/12 08:44:13;;;;;;;4.22;3.40;;;0.90;99.90;;;;;;4789005;29;20058;-81
2021/04/12 08:47:06;;;;;;;4.47;4.07;;;0.90;99.90;;;;;;4799576;29;20043;-87
2021/04/12 08:50:16;;;;;;;3.72;3.42;;;0.90;99.90;;;;;;4824017;29;20042;-87
2021/04/12 08:54:08;;;;;;;3.70;3.22;;;1.00;99.90;;;;;;4807118;29;20038;-88
2021/04/12 08:56:37;;;;;;;5.05;4.55;;;1.10;99.90;;;;;;4836082;29;20095;-85
2021/04/12 08:59:29;;;;;;;6.20;5.70;;;1.10;99.90;;;;;;4816984;29;20046;-83
2021/04/12 09:02:18;;;;;;;4.78;4.22;;;1.10;99.90;;;;;;4806390;29;20053;-83
2021/04/12 09:05:26;;;;;;;3.50;3.20;;;1.20;99.90;;;;;;4823471;29;20054;-87
2021/04/12 09:08:15;;;;;;;4.18;3.78;;;1.20;99.90;;;;;;4808812;29;20046;-90
2021/04/12 09:11:04;;;;;;;4.63;4.30;;;1.30;99.90;;;;;;4836138;29;20057;-87
2021/04/12 09:13:48;;;;;;;3.88;3.58;;;1.30;99.90;;;;;;4826456;29;20035;-86
2021/04/12 09:16:19;;;;;;;3.60;3.30;;;1.40;99.90;;;;;;4804255;29;20803;-81
2021/04/12 09:19:08;;;;;;;3.90;3.50;;;1.40;99.90;;;;;;4813031;29;20054;-84
2021/04/12 09:22:24;;;;;;;4.15;3.85;;;1.40;99.90;;;;;;4817103;29;20043;-80
2021/04/12 09:25:16;;;;;;;3.88;3.53;;;1.50;99.90;;;;;;4791113;29;20055;-79
2021/04/12 09:28:03;;;;;;;4.25;3.95;;;1.50;99.90;;;;;;4805605;29;20505;-81
2021/04/12 09:31:08;;;;;;;5.18;4.78;;;1.50;99.90;;;;;;4791202;29;20493;-80
2021/04/12 09:34:04;;;;;;;4.38;4.00;;;1.50;99.90;;;;;;4793728;29;20557;-79
2021/04/12 09:37:04;;;;;;;3.92;3.63;;;1.50;99.90;;;;;;4815564;29;20051;-81
2021/04/12 09:39:54;;;;;;;4.80;4.40;;;1.60;99.90;;;;;;4814207;29;20093;-80
2021/04/12 09:42:41;;;;;;;4.35;3.70;;;1.50;99.90;;;;;;4818628;29;20047;-88
2021/04/12 09:45:46;;;;;;;4.72;4.25;;;1.80;99.90;;;;;;4805965;29;20061;-88
2021/04/12 09:48:53;;;;;;;4.68;4.28;;;1.60;99.90;;;;;;4793153;29;20054;-88
2021/04/12 09:51:43;;;;;;;6.38;4.70;;;1.60;99.90;;;;;;4776201;29;20057;-90
2021/04/12 09:55:01;;;;;;;5.55;3.63;;;1.70;99.90;;;;;;4792286;29;20059;-89
2021/04/12 09:57:35;;;;;;;5.30;4.80;;;1.70;99.90;;;;;;4788235;29;20677;-88
2021/04/12 10:00:50;;;;;;;4.85;4.45;;;1.70;99.90;;;;;;4795350;29;20057;-89
2021/04/12 10:03:47;;;;;;;4.63;4.20;;;1.70;99.90;;;;;;4792635;29;20493;-88
2021/04/12 10:06:31;;;;;;;4.35;4.05;;;1.80;99.90;;;;;;4788768;29;20042;-89
2021/04/12 10:09:18;;;;;;;4.47;4.07;;;1.90;99.90;;;;;;4825148;29;20055;-88
2021/04/12 10:12:31;;;;;;;4.68;4.22;;;1.90;99.90;;;;;;4784846;29;20421;-90
2021/04/12 10:15:30;;;;;;;4.30;4.00;;;1.90;99.90;;;;;;4775406;29;20054;-87
2021/04/12 10:18:14;;;;;;;4.53;4.13;;;1.90;99.90;;;;;;4804939;29;20051;-88
2021/04/12 10:21:18;;;;;;;4.43;4.03;;;2.00;99.90;;;;;;4763077;29;20059;-89
2021/04/12 10:23:52;;;;;;;;;;;2.00;99.90;;;;;;4806510;29;20493;-87
2021/04/12 10:26:44;;;;;;;5.20;4.45;;;2.00;99.90;;;;;;4775770;29;19932;-87
2021/04/12 10:29:20;;;;;;;5.35;4.85;;;2.00;99.90;;;;;;4807152;29;20058;-87
2021/04/12 10:32:01;;;;;;;6.80;4.75;;;1.90;99.90;;;;;;4823371;29;20063;-87
2021/04/12 10:34:34;;;;;;;;;;;1.90;99.90;;;;;;4811902;29;20038;-87
2021/04/12 10:37:17;;;;;;;5.28;4.25;;;2.00;99.90;;;;;;4801913;29;19925;-85
2021/04/12 10:40:21;;;;;;;5.15;4.63;;;2.10;99.90;;;;;;4762974;29;20047;-88
2021/04/12 10:43:04;;;;;;;;;;;2.00;99.90;;;;;;4762942;29;20046;-84
2021/04/12 10:46:06;;;;;;;6.95;4.32;;;2.00;99.90;;;;;;4789258;29;19925;-85
2021/04/12 10:49:05;;;;;;;5.13;4.63;;;2.00;99.90;;;;;;4777079;29;20054;-82
2021/04/12 10:52:19;;;;;;;6.13;5.53;;;2.00;99.90;;;;;;4813290;29;20046;-83
2021/04/12 10:55:43;;;;;;;6.50;5.63;;;2.10;99.90;;;;;;4772008;29;20075;-88
2021/04/12 10:58:30;;;;;;;6.50;5.88;;;2.20;99.90;;;;;;4492474;29;10001000;-85
2021/04/12 11:01:42;;;;;;;7.07;5.55;;;2.10;99.90;;;;;;4304235;29;10001463;-84
2021/04/12 11:04:50;;;;;;;5.85;5.25;;;2.20;99.90;;;;;;4788902;29;20390;-89
2021/04/12 11:08:08;;;;;;;6.20;5.55;;;2.20;99.90;;;;;;4800268;29;20492;-87
2021/04/12 11:10:43;;;;;;;7.97;7.27;;;2.30;99.90;;;;;;4716433;30;20792;-88
2021/04/12 11:13:52;;;;;;;5.43;4.93;;;2.10;99.90;;;;;;4738314;29;20055;-87
2021/04/12 11:16:45;;;;;;;4.63;4.18;;;1.90;99.90;;;;;;4770309;29;20060;-87
2021/04/12 11:19:57;;;;;;;7.35;6.75;;;1.80;99.90;;;;;;4768912;30;20058;-87
2021/04/12 11:22:58;;;;;;;6.13;5.57;;;1.70;99.90;;;;;;4753015;30;20503;-86
2021/04/12 11:25:55;;;;;;;6.20;5.38;;;1.80;99.90;;;;;;4775180;30;20429;-84
2021/04/12 11:28:56;;;;;;;6.28;5.65;;;1.90;99.90;;;;;;4764452;30;20413;-83
2021/04/12 11:31:43;;;;;;;5.78;4.93;;;2.00;99.90;;;;;;4767373;29;20055;-86
2021/04/12 11:34:42;;;;;;;10.00;4.57;;;2.00;99.90;;;;;;4770295;30;20494;-86
2021/04/12 11:38:10;;;;;;;6.32;5.15;;;2.00;99.90;;;;;;4740499;30;20044;-83
2021/04/12 11:40:51;;;;;;;6.03;5.40;;;2.00;99.90;;;;;;4780273;29;20050;-87
2021/04/12 11:43:25;;;;;;;6.25;5.38;;;2.00;99.90;;;;;;4805984;29;20054;-92
2021/04/12 11:46:18;;;;;;;4.78;4.38;;;1.90;99.90;;;;;;4790118;29;20051;-87
2021/04/12 11:49:17;;;;;;;9.35;6.25;;;1.90;99.90;;;;;;4792233;29;20059;-91
2021/04/12 11:51:54;;;;;;;5.50;4.38;;;1.90;99.90;;;;;;4790338;29;20509;-93
2021/04/12 11:55:06;;;;;;;5.35;4.85;;;2.00;99.90;;;;;;4780319;29;20047;-91
2021/04/12 11:58:05;;;;;;;5.25;4.82;;;1.90;99.90;;;;;;4799709;29;20058;-87
2021/04/12 12:00:55;;;;;;;5.22;4.80;;;2.00;99.90;;;;;;4795405;29;20070;-91
2021/04/12 12:03:53;;;;;;;8.00;5.57;;;1.90;99.90;;;;;;4780623;30;20054;-93
2021/04/12 12:06:46;;;;;;;5.15;4.65;;;2.00;99.90;;;;;;4789153;30;20059;-93
2021/04/12 12:09:31;;;;;;;5.55;4.03;;;2.20;99.90;;;;;;4788301;30;20517;-90
2021/04/12 12:12:07;;;;;;;6.30;5.70;;;2.30;99.90;;;;;;4788377;30;20059;-84
2021/04/12 12:14:43;;;;;;;3.58;3.28;;;2.30;99.90;;;;;;4787911;29;20419;-86
2021/04/12 12:17:20;;;;;;;;;;;2.30;99.90;;;;;;4767372;29;20081;-90
2021/04/12 12:20:18;;;;;;;5.22;4.72;;;2.20;99.90;;;;;;4806745;29;19925;-92
2021/04/12 12:22:56;;;;;;;5.57;5.10;;;2.30;99.90;;;;;;4769163;30;20055;-87
2021/04/12 12:25:48;;;;;;;4.75;4.35;;;2.30;99.90;;;;;;4762788;30;20066;-89
2021/04/12 12:29:01;;;;;;;5.25;4.63;;;2.30;99.90;;;;;;4772707;30;20070;-92
2021/04/12 12:32:20;;;;;;;3.22;3.00;;;2.20;99.90;;;;;;4762466;30;20496;-90
2021/04/12 12:35:08;;;;;;;5.40;4.95;;;2.10;99.90;;;;;;4797103;29;20042;-87
2021/04/12 12:38:04;;;;;;;5.63;4.78;;;2.00;99.90;;;;;;4792744;29;20050;-87
2021/04/12 12:40:55;;;;;;;5.47;4.57;;;2.10;99.90;;;;;;4792805;29;20059;-84
2021/04/12 12:43:33;;;;;;;5.30;4.90;;;2.00;99.90;;;;;;4784374;30;20050;-86
2021/04/12 12:46:27;;;;;;;5.78;4.72;;;2.10;99.90;;;;;;4756101;30;20452;-84
2021/04/12 12:49:49;;;;;;;5.47;4.97;;;2.10;99.90;;;;;;4787934;30;20055;-90
2021/04/12 12:52:34;;;;;;;6.43;5.65;;;2.00;99.90;;;;;;4707127;30;20056;-84
2021/04/12 12:55:15;;;;;;;5.30;4.28;;;2.10;99.90;;;;;;4745590;29;20056;-82
2021/04/12 12:57:44;;;;;;;7.68;5.30;;;2.20;99.90;;;;;;4787470;29;20055;-84
2021/04/12 13:00:18;;;;;;;5.03;4.53;;;2.20;99.90;;;;;;4792793;29;20422;-85
2021/04/12 13:02:48;;;;;;;6.10;5.47;;;2.30;99.90;;;;;;4797689;29;20051;-87
2021/04/12 13:05:25;;;;;;;6.82;5.93;;;2.30;99.90;;;;;;4795239;29;20055;-85
2021/04/12 13:08:10;;;;;;;6.68;6.03;;;2.20;99.90;;;;;;4795299;29;20059;-87
2021/04/12 13:10:53;;;;;;;5.10;4.60;;;2.10;99.90;;;;;;4790618;29;20054;-86
2021/04/12 13:13:33;;;;;;;5.13;4.63;;;2.20;99.90;;;;;;4770634;29;20482;-86
2021/04/12 13:16:28;;;;;;;5.78;4.93;;;2.20;99.90;;;;;;4774336;29;20051;-87
2021/04/12 13:19:02;;;;;;;5.55;4.95;;;2.20;99.90;;;;;;4803095;29;20548;-87
2021/04/12 13:21:36;;;;;;;5.95;4.60;;;2.30;99.90;;;;;;4803805;29;20050;-88
2021/04/12 13:24:06;;;;;;;6.78;5.75;;;2.40;99.90;;;;;;4804445;29;20406;-88
2021/04/12 13:26:51;;;;;;;10.38;7.25;;;2.40;99.90;;;;;;4799587;29;20520;-85
2021/04/12 13:29:25;;;;;;;5.07;4.57;;;2.40;99.90;;;;;;4803855;29;20410;-87
2021/04/12 13:31:57;;;;;;;6.30;4.78;;;2.40;99.90;;;;;;4803874;29;20066;-87
2021/04/12 13:34:39;;;;;;;5.50;4.05;;;2.30;99.90;;;;;;4804112;29;20059;-87
2021/04/12 13:37:41;;;;;;;5.05;4.60;;;2.30;99.90;;;;;;4802586;29;20066;-85
2021/04/12 13:40:23;;;;;;;5.80;4.18;;;2.40;99.90;;;;;;4804386;29;20054;-86
2021/04/12 13:42:54;;;;;;;4.30;3.70;;;2.40;99.90;;;;;;4803909;29;20047;-89
2021/04/12 13:45:35;;;;;;;4.78;4.03;;;2.10;99.90;;;;;;4802781;29;20054;-87
2021/04/12 13:48:27;;;;;;;7.13;6.07;;;2.00;99.90;;;;;;4804768;29;20058;-85
2021/04/12 13:51:05;;;;;;;4.80;4.18;;;1.70;99.90;;;;;;4803300;29;20054;-87
2021/04/12 13:53:45;;;;;;;4.53;4.10;;;1.70;99.90;;;;;;4804297;29;20046;-87
2021/04/12 13:56:16;;;;;;;6.00;4.70;;;1.90;99.90;;;;;;4802048;29;20054;-87
2021/04/12 13:59:04;;;;;;;3.75;3.45;;;2.00;99.90;;;;;;4792694;29;20494;-87
2021/04/12 14:02:01;;;;;;;5.28;4.20;;;2.00;99.90;;;;;;4782743;29;20047;-87
2021/04/12 14:04:39;;;;;;;5.53;5.03;;;2.00;99.90;;;;;;4787430;29;20054;-87
2021/04/12 14:07:37;;;;;;;5.05;4.55;;;1.90;99.90;;;;;;4786396;29;20050;-88
2021/04/12 14:10:12;;;;;;;5.20;4.70;;;1.90;99.90;;;;;;4790419;29;20078;-86
2021/04/12 14:12:45;;;;;;;6.00;5.47;;;1.90;99.90;;;;;;4786268;30;20090;-88
2021/04/12 14:15:17;;;;;;;5.00;4.55;;;1.90;99.90;;;;;;4794480;29;20058;-85
2021/04/12 14:17:58;;;;;;;4.78;4.38;;;1.90;99.90;;;;;;4789677;29;20058;-88
2021/04/12 14:20:44;;;;;;;5.40;4.90;;;1.90;99.90;;;;;;4799546;29;20086;-87
2021/04/12 14:23:44;;;;;;;5.22;4.70;;;1.90;99.90;;;;;;4792610;29;20070;-90
2021/04/12 14:26:23;;;;;;;4.43;4.03;;;1.90;99.90;;;;;;4795673;29;20382;-89
2021/04/12 14:28:53;;;;;;;5.60;5.00;;;1.90;99.90;;;;;;4795750;29;20604;-88
2021/04/12 14:31:23;;;;;;;5.22;4.57;;;2.00;99.90;;;;;;4798499;29;20054;-87
2021/04/12 14:34:06;;;;;;;5.13;4.20;;;2.00;99.90;;;;;;4786459;29;20055;-88
2021/04/12 14:36:42;;;;;;;5.25;4.25;;;2.10;99.90;;;;;;4766280;29;20059;-88
2021/04/12 14:39:24;;;;;;;5.10;4.60;;;2.10;99.90;;;;;;4793912;29;20047;-89
2021/04/12 14:41:58;;;;;;;4.82;4.32;;;2.00;99.90;;;;;;4789651;29;20391;-85
2021/04/12 14:44:50;;;;;;;5.22;4.65;;;2.10;99.90;;;;;;4798132;29;20054;-85
2021/04/12 14:47:25;;;;;;;4.43;4.03;;;2.10;99.90;;;;;;4793485;29;20048;-88
2021/04/12 14:50:04;;;;;;;6.13;4.82;;;2.00;99.90;;;;;;4796365;29;20050;-88
2021/04/12 14:52:37;;;;;;;4.20;3.78;;;2.00;99.90;;;;;;4798124;29;20521;-86
2021/04/12 14:55:18;;;;;;;5.70;4.32;;;1.90;99.90;;;;;;4803110;29;20074;-86
2021/04/12 14:57:48;;;;;;;6.45;5.80;;;1.90;99.90;;;;;;4803122;29;20059;-87
2021/04/12 15:00:26;;;;;;;6.32;5.72;;;1.90;99.90;;;;;;4787078;29;20059;-86